Terminal Aerodrome Forecast
Issued by NWS Midland/Odessa, TX

Home | Current Version | Previous Version | Text Only | Print | Product List | Glossary On
Versions: 1 2 3 4 5 6 7 8 9 10 11 12 13 14 15 16 17
711
FTUS44 KMAF 280857 AAA
TAFMAF
TAF AMD
KMAF 280857Z 2809/2906 15011KT P6SM OVC011 WS020/17035KT
     FM281400 21011KT P6SM BKN130
     FM281700 24016G24KT P6SM BKN200=

USA.gov is the U.S. government's official web portal to all federal, state and local government web resources and services.